sensor_id;sensor_type;location;lat;lon;timestamp;pressure;altitude;pressure_sealevel;temperature
22322;BMP180;11328;53.928;18.522;2022-11-20T00:01:31;99769.00;;;0.80
22322;BMP180;11328;53.928;18.522;2022-11-20T00:03:58;99772.00;;;0.80
22322;BMP180;11328;53.928;18.522;2022-11-20T00:06:28;99767.00;;;0.80
22322;BMP180;11328;53.928;18.522;2022-11-20T00:08:58;99767.00;;;0.80
22322;BMP180;11328;53.928;18.522;2022-11-20T00:11:28;99770.00;;;0.90
22322;BMP180;11328;53.928;18.522;2022-11-20T00:25:20;99783.00;;;1.70
22322;BMP180;11328;53.928;18.522;2022-11-20T00:27:47;99774.00;;;1.50
22322;BMP180;11328;53.928;18.522;2022-11-20T00:30:14;99785.00;;;1.40
22322;BMP180;11328;53.928;18.522;2022-11-20T00:32:41;99740.00;;;1.30
22322;BMP180;11328;53.928;18.522;2022-11-20T00:35:08;99778.00;;;1.20
22322;BMP180;11328;53.928;18.522;2022-11-20T00:37:35;99776.00;;;1.10
22322;BMP180;11328;53.928;18.522;2022-11-20T00:40:02;99781.00;;;1.10
22322;BMP180;11328;53.928;18.522;2022-11-20T00:42:29;99780.00;;;1.10
22322;BMP180;11328;53.928;18.522;2022-11-20T00:44:57;99780.00;;;1.00
22322;BMP180;11328;53.928;18.522;2022-11-20T00:47:24;99787.00;;;1.00
22322;BMP180;11328;53.928;18.522;2022-11-20T00:49:51;99788.00;;;0.90
22322;BMP180;11328;53.928;18.522;2022-11-20T00:52:18;99786.00;;;0.80
22322;BMP180;11328;53.928;18.522;2022-11-20T00:54:45;99779.00;;;0.90
22322;BMP180;11328;53.928;18.522;2022-11-20T00:57:12;99784.00;;;0.80
22322;BMP180;11328;53.928;18.522;2022-11-20T00:59:39;99788.00;;;0.80
22322;BMP180;11328;53.928;18.522;2022-11-20T01:02:06;99784.00;;;0.70
22322;BMP180;11328;53.928;18.522;2022-11-20T01:04:33;99789.00;;;0.70
22322;BMP180;11328;53.928;18.522;2022-11-20T01:07:00;99782.00;;;0.70
22322;BMP180;11328;53.928;18.522;2022-11-20T01:09:27;99791.00;;;0.70
22322;BMP180;11328;53.928;18.522;2022-11-20T01:11:53;99794.00;;;0.70
22322;BMP180;11328;53.928;18.522;2022-11-20T01:14:20;99781.00;;;0.70
22322;BMP180;11328;53.928;18.522;2022-11-20T01:16:50;99788.00;;;0.70
22322;BMP180;11328;53.928;18.522;2022-11-20T01:19:22;99786.00;;;0.80
22322;BMP180;11328;53.928;18.522;2022-11-20T01:21:53;99783.00;;;0.70
22322;BMP180;11328;53.928;18.522;2022-11-20T01:24:22;99782.00;;;0.70
22322;BMP180;11328;53.928;18.522;2022-11-20T01:26:50;99787.00;;;0.70
22322;BMP180;11328;53.928;18.522;2022-11-20T01:29:23;99787.00;;;0.80
22322;BMP180;11328;53.928;18.522;2022-11-20T01:31:52;99783.00;;;0.80
22322;BMP180;11328;53.928;18.522;2022-11-20T01:34:21;99783.00;;;0.80
22322;BMP180;11328;53.928;18.522;2022-11-20T01:36:49;99793.00;;;0.80
22322;BMP180;11328;53.928;18.522;2022-11-20T01:39:20;99792.00;;;0.80
22322;BMP180;11328;53.928;18.522;2022-11-20T01:41:50;99776.00;;;0.80
22322;BMP180;11328;53.928;18.522;2022-11-20T01:44:49;99786.00;;;0.70
22322;BMP180;11328;53.928;18.522;2022-11-20T01:50:22;99793.00;;;0.80
22322;BMP180;11328;53.928;18.522;2022-11-20T01:52:54;99780.00;;;0.90
22322;BMP180;11328;53.928;18.522;2022-11-20T01:55:29;99782.00;;;0.80
22322;BMP180;11328;53.928;18.522;2022-11-20T01:57:58;99782.00;;;0.80
22322;BMP180;11328;53.928;18.522;2022-11-20T02:00:26;99781.00;;;0.80
22322;BMP180;11328;53.928;18.522;2022-11-20T02:03:08;99782.00;;;0.90
22322;BMP180;11328;53.928;18.522;2022-11-20T02:05:47;99765.00;;;0.90
22322;BMP180;11328;53.928;18.522;2022-11-20T02:08:17;99779.00;;;0.90
22322;BMP180;11328;53.928;18.522;2022-11-20T02:10:44;99784.00;;;1.00
22322;BMP180;11328;53.928;18.522;2022-11-20T02:13:11;99772.00;;;1.00
22322;BMP180;11328;53.928;18.522;2022-11-20T02:15:57;99776.00;;;0.90
22322;BMP180;11328;53.928;18.522;2022-11-20T02:18:24;99774.00;;;1.00
22322;BMP180;11328;53.928;18.522;2022-11-20T02:21:00;99746.00;;;1.00
22322;BMP180;11328;53.928;18.522;2022-11-20T02:26:15;99729.00;;;0.90
22322;BMP180;11328;53.928;18.522;2022-11-20T02:28:43;99781.00;;;1.00
22322;BMP180;11328;53.928;18.522;2022-11-20T02:31:10;99779.00;;;1.10
22322;BMP180;11328;53.928;18.522;2022-11-20T02:33:37;99783.00;;;1.10
22322;BMP180;11328;53.928;18.522;2022-11-20T02:36:05;99788.00;;;1.20
22322;BMP180;11328;53.928;18.522;2022-11-20T02:38:32;99761.00;;;1.20
22322;BMP180;11328;53.928;18.522;2022-11-20T02:40:59;99773.00;;;1.20
22322;BMP180;11328;53.928;18.522;2022-11-20T02:43:26;99773.00;;;1.20
22322;BMP180;11328;53.928;18.522;2022-11-20T02:45:53;99768.00;;;1.20
22322;BMP180;11328;53.928;18.522;2022-11-20T02:48:20;99771.00;;;1.10
22322;BMP180;11328;53.928;18.522;2022-11-20T02:50:50;99774.00;;;0.90
22322;BMP180;11328;53.928;18.522;2022-11-20T02:53:17;99769.00;;;0.90
22322;BMP180;11328;53.928;18.522;2022-11-20T02:55:43;99759.00;;;1.00
22322;BMP180;11328;53.928;18.522;2022-11-20T02:58:10;99758.00;;;1.00
22322;BMP180;11328;53.928;18.522;2022-11-20T03:00:40;99771.00;;;0.90
22322;BMP180;11328;53.928;18.522;2022-11-20T03:03:07;99766.00;;;0.80
22322;BMP180;11328;53.928;18.522;2022-11-20T03:05:35;99741.00;;;0.80
22322;BMP180;11328;53.928;18.522;2022-11-20T03:08:01;99759.00;;;0.70
22322;BMP180;11328;53.928;18.522;2022-11-20T03:10:28;99743.00;;;0.60
22322;BMP180;11328;53.928;18.522;2022-11-20T03:12:56;99763.00;;;0.50
22322;BMP180;11328;53.928;18.522;2022-11-20T03:15:23;99739.00;;;0.50
22322;BMP180;11328;53.928;18.522;2022-11-20T03:17:54;99754.00;;;0.50
22322;BMP180;11328;53.928;18.522;2022-11-20T03:20:22;99753.00;;;0.50
22322;BMP180;11328;53.928;18.522;2022-11-20T03:22:49;99746.00;;;0.40
22322;BMP180;11328;53.928;18.522;2022-11-20T03:25:16;99748.00;;;0.40
22322;BMP180;11328;53.928;18.522;2022-11-20T03:27:43;99735.00;;;0.40
22322;BMP180;11328;53.928;18.522;2022-11-20T03:30:11;99738.00;;;0.40
22322;BMP180;11328;53.928;18.522;2022-11-20T03:32:38;99729.00;;;0.40
22322;BMP180;11328;53.928;18.522;2022-11-20T03:35:05;99733.00;;;0.30
22322;BMP180;11328;53.928;18.522;2022-11-20T03:37:32;99738.00;;;0.40
22322;BMP180;11328;53.928;18.522;2022-11-20T03:39:59;99743.00;;;0.40
22322;BMP180;11328;53.928;18.522;2022-11-20T03:42:26;99737.00;;;0.30
22322;BMP180;11328;53.928;18.522;2022-11-20T03:45:17;99740.00;;;0.30
22322;BMP180;11328;53.928;18.522;2022-11-20T03:47:45;99738.00;;;0.30
22322;BMP180;11328;53.928;18.522;2022-11-20T03:50:13;99734.00;;;0.30
22322;BMP180;11328;53.928;18.522;2022-11-20T03:52:41;99731.00;;;0.30
22322;BMP180;11328;53.928;18.522;2022-11-20T03:55:08;99735.00;;;0.40
22322;BMP180;11328;53.928;18.522;2022-11-20T03:57:35;99731.00;;;0.50
22322;BMP180;11328;53.928;18.522;2022-11-20T04:00:04;99735.00;;;0.50
22322;BMP180;11328;53.928;18.522;2022-11-20T04:02:31;99746.00;;;0.50
22322;BMP180;11328;53.928;18.522;2022-11-20T04:16:23;99742.00;;;1.40
22322;BMP180;11328;53.928;18.522;2022-11-20T04:18:56;99742.00;;;1.40
22322;BMP180;11328;53.928;18.522;2022-11-20T04:21:24;99740.00;;;1.30
22322;BMP180;11328;53.928;18.522;2022-11-20T04:23:53;99738.00;;;1.10
22322;BMP180;11328;53.928;18.522;2022-11-20T04:26:23;99731.00;;;1.00
22322;BMP180;11328;53.928;18.522;2022-11-20T04:28:50;99741.00;;;1.00
22322;BMP180;11328;53.928;18.522;2022-11-20T04:31:27;99736.00;;;1.00
22322;BMP180;11328;53.928;18.522;2022-11-20T04:33:54;99647.00;;;0.80
22322;BMP180;11328;53.928;18.522;2022-11-20T04:36:26;99738.00;;;0.80
22322;BMP180;11328;53.928;18.522;2022-11-20T04:39:00;99733.00;;;0.70
22322;BMP180;11328;53.928;18.522;2022-11-20T04:41:31;99728.00;;;0.70
22322;BMP180;11328;53.928;18.522;2022-11-20T04:44:01;99721.00;;;0.70
22322;BMP180;11328;53.928;18.522;2022-11-20T04:46:37;99727.00;;;0.70
22322;BMP180;11328;53.928;18.522;2022-11-20T04:49:05;99721.00;;;0.80
22322;BMP180;11328;53.928;18.522;2022-11-20T04:51:32;99732.00;;;0.90
22322;BMP180;11328;53.928;18.522;2022-11-20T04:54:00;99728.00;;;0.90
22322;BMP180;11328;53.928;18.522;2022-11-20T04:56:27;99726.00;;;0.90
22322;BMP180;11328;53.928;18.522;2022-11-20T04:58:54;99733.00;;;1.00
22322;BMP180;11328;53.928;18.522;2022-11-20T05:01:23;99729.00;;;1.00
22322;BMP180;11328;53.928;18.522;2022-11-20T05:03:51;99719.00;;;1.00
22322;BMP180;11328;53.928;18.522;2022-11-20T05:06:20;99726.00;;;1.00
22322;BMP180;11328;53.928;18.522;2022-11-20T05:08:48;99721.00;;;1.00
22322;BMP180;11328;53.928;18.522;2022-11-20T05:11:19;99722.00;;;0.90
22322;BMP180;11328;53.928;18.522;2022-11-20T05:13:47;99716.00;;;0.90
22322;BMP180;11328;53.928;18.522;2022-11-20T05:16:21;99718.00;;;0.90
22322;BMP180;11328;53.928;18.522;2022-11-20T05:18:53;99712.00;;;1.00
22322;BMP180;11328;53.928;18.522;2022-11-20T05:21:21;99708.00;;;1.00
22322;BMP180;11328;53.928;18.522;2022-11-20T05:23:48;99705.00;;;0.90
22322;BMP180;11328;53.928;18.522;2022-11-20T05:26:19;99694.00;;;1.00
22322;BMP180;11328;53.928;18.522;2022-11-20T05:28:46;99708.00;;;0.90
22322;BMP180;11328;53.928;18.522;2022-11-20T05:31:22;99697.00;;;1.00
22322;BMP180;11328;53.928;18.522;2022-11-20T05:33:55;99702.00;;;0.90
22322;BMP180;11328;53.928;18.522;2022-11-20T05:36:23;99706.00;;;0.90
22322;BMP180;11328;53.928;18.522;2022-11-20T05:38:50;99696.00;;;0.90
22322;BMP180;11328;53.928;18.522;2022-11-20T05:41:22;99694.00;;;1.00
22322;BMP180;11328;53.928;18.522;2022-11-20T05:43:50;99697.00;;;1.00
22322;BMP180;11328;53.928;18.522;2022-11-20T05:46:20;99694.00;;;0.90
22322;BMP180;11328;53.928;18.522;2022-11-20T05:48:55;99687.00;;;0.80
22322;BMP180;11328;53.928;18.522;2022-11-20T05:51:23;99695.00;;;0.70
22322;BMP180;11328;53.928;18.522;2022-11-20T05:53:50;99680.00;;;0.60
22322;BMP180;11328;53.928;18.522;2022-11-20T05:56:20;99695.00;;;0.80
22322;BMP180;11328;53.928;18.522;2022-11-20T05:58:48;99693.00;;;0.90
22322;BMP180;11328;53.928;18.522;2022-11-20T06:01:23;99697.00;;;0.90
22322;BMP180;11328;53.928;18.522;2022-11-20T06:03:51;99687.00;;;0.80
22322;BMP180;11328;53.928;18.522;2022-11-20T06:06:19;99683.00;;;0.90
22322;BMP180;11328;53.928;18.522;2022-11-20T06:08:47;99687.00;;;0.90
22322;BMP180;11328;53.928;18.522;2022-11-20T06:11:15;99686.00;;;0.80
22322;BMP180;11328;53.928;18.522;2022-11-20T06:13:43;99686.00;;;0.80
22322;BMP180;11328;53.928;18.522;2022-11-20T06:16:13;99683.00;;;0.90
22322;BMP180;11328;53.928;18.522;2022-11-20T06:18:41;99679.00;;;0.80
22322;BMP180;11328;53.928;18.522;2022-11-20T06:21:18;99676.00;;;0.80
22322;BMP180;11328;53.928;18.522;2022-11-20T06:23:46;99678.00;;;0.80
22322;BMP180;11328;53.928;18.522;2022-11-20T06:26:21;99682.00;;;0.70
22322;BMP180;11328;53.928;18.522;2022-11-20T06:28:50;99680.00;;;0.80
22322;BMP180;11328;53.928;18.522;2022-11-20T06:31:21;99677.00;;;0.80
22322;BMP180;11328;53.928;18.522;2022-11-20T06:33:48;99658.00;;;0.80
22322;BMP180;11328;53.928;18.522;2022-11-20T06:36:19;99676.00;;;0.90
22322;BMP180;11328;53.928;18.522;2022-11-20T06:38:46;99681.00;;;0.90
22322;BMP180;11328;53.928;18.522;2022-11-20T06:41:16;99671.00;;;0.90
22322;BMP180;11328;53.928;18.522;2022-11-20T06:43:43;99673.00;;;0.90
22322;BMP180;11328;53.928;18.522;2022-11-20T06:46:13;99675.00;;;1.00
22322;BMP180;11328;53.928;18.522;2022-11-20T06:48:40;99672.00;;;1.00
22322;BMP180;11328;53.928;18.522;2022-11-20T06:51:08;99683.00;;;1.00
22322;BMP180;11328;53.928;18.522;2022-11-20T06:53:36;99649.00;;;0.90
22322;BMP180;11328;53.928;18.522;2022-11-20T06:56:05;99671.00;;;0.90
22322;BMP180;11328;53.928;18.522;2022-11-20T06:58:34;99669.00;;;0.80
22322;BMP180;11328;53.928;18.522;2022-11-20T07:01:06;99666.00;;;0.80
22322;BMP180;11328;53.928;18.522;2022-11-20T07:03:33;99661.00;;;0.80
22322;BMP180;11328;53.928;18.522;2022-11-20T07:06:01;99674.00;;;0.80
22322;BMP180;11328;53.928;18.522;2022-11-20T07:08:29;99666.00;;;0.90
22322;BMP180;11328;53.928;18.522;2022-11-20T07:11:01;99667.00;;;0.60
22322;BMP180;11328;53.928;18.522;2022-11-20T07:13:29;99663.00;;;0.90
22322;BMP180;11328;53.928;18.522;2022-11-20T07:16:04;99665.00;;;0.90
22322;BMP180;11328;53.928;18.522;2022-11-20T07:18:32;99665.00;;;0.90
22322;BMP180;11328;53.928;18.522;2022-11-20T07:21:09;99654.00;;;0.90
22322;BMP180;11328;53.928;18.522;2022-11-20T07:37:07;99672.00;;;2.10
22322;BMP180;11328;53.928;18.522;2022-11-20T07:39:36;99663.00;;;1.90
22322;BMP180;11328;53.928;18.522;2022-11-20T07:42:03;99665.00;;;1.80
22322;BMP180;11328;53.928;18.522;2022-11-20T07:44:30;99657.00;;;1.60
22322;BMP180;11328;53.928;18.522;2022-11-20T07:46:57;99649.00;;;1.60
22322;BMP180;11328;53.928;18.522;2022-11-20T07:49:24;99656.00;;;1.60
22322;BMP180;11328;53.928;18.522;2022-11-20T07:51:51;99634.00;;;1.50
22322;BMP180;11328;53.928;18.522;2022-11-20T07:54:21;99651.00;;;1.40
22322;BMP180;11328;53.928;18.522;2022-11-20T07:56:49;99649.00;;;1.40
22322;BMP180;11328;53.928;18.522;2022-11-20T07:59:16;99645.00;;;1.50
22322;BMP180;11328;53.928;18.522;2022-11-20T08:01:43;99637.00;;;1.60
22322;BMP180;11328;53.928;18.522;2022-11-20T08:04:10;99643.00;;;1.60
22322;BMP180;11328;53.928;18.522;2022-11-20T08:06:38;99654.00;;;1.60
22322;BMP180;11328;53.928;18.522;2022-11-20T08:09:05;99647.00;;;1.50
22322;BMP180;11328;53.928;18.522;2022-11-20T08:11:32;99644.00;;;1.50
22322;BMP180;11328;53.928;18.522;2022-11-20T08:14:17;99644.00;;;1.50
22322;BMP180;11328;53.928;18.522;2022-11-20T08:16:49;99655.00;;;1.50
22322;BMP180;11328;53.928;18.522;2022-11-20T08:19:18;99609.00;;;1.60
22322;BMP180;11328;53.928;18.522;2022-11-20T08:21:46;99638.00;;;1.70
22322;BMP180;11328;53.928;18.522;2022-11-20T08:24:13;99642.00;;;1.70
22322;BMP180;11328;53.928;18.522;2022-11-20T08:26:41;99642.00;;;1.70
22322;BMP180;11328;53.928;18.522;2022-11-20T08:29:08;99643.00;;;1.80
22322;BMP180;11328;53.928;18.522;2022-11-20T08:31:35;99645.00;;;1.90
22322;BMP180;11328;53.928;18.522;2022-11-20T08:34:02;99647.00;;;1.60
22322;BMP180;11328;53.928;18.522;2022-11-20T08:36:35;99643.00;;;2.10
22322;BMP180;11328;53.928;18.522;2022-11-20T08:39:03;99645.00;;;2.20
22322;BMP180;11328;53.928;18.522;2022-11-20T08:41:30;99646.00;;;2.30
22322;BMP180;11328;53.928;18.522;2022-11-20T08:44:03;99635.00;;;2.40
22322;BMP180;11328;53.928;18.522;2022-11-20T08:46:40;99617.00;;;2.60
22322;BMP180;11328;53.928;18.522;2022-11-20T08:49:13;99644.00;;;2.60
22322;BMP180;11328;53.928;18.522;2022-11-20T08:51:41;99653.00;;;2.60
22322;BMP180;11328;53.928;18.522;2022-11-20T08:54:09;99646.00;;;2.70
22322;BMP180;11328;53.928;18.522;2022-11-20T08:56:36;99652.00;;;2.80
22322;BMP180;11328;53.928;18.522;2022-11-20T08:59:03;99637.00;;;2.80
22322;BMP180;11328;53.928;18.522;2022-11-20T09:01:50;99648.00;;;2.70
22322;BMP180;11328;53.928;18.522;2022-11-20T09:04:17;99647.00;;;2.60
22322;BMP180;11328;53.928;18.522;2022-11-20T09:06:44;99647.00;;;2.60
22322;BMP180;11328;53.928;18.522;2022-11-20T09:09:11;99645.00;;;2.50
22322;BMP180;11328;53.928;18.522;2022-11-20T09:11:38;99648.00;;;2.50
22322;BMP180;11328;53.928;18.522;2022-11-20T09:14:08;99654.00;;;2.50
22322;BMP180;11328;53.928;18.522;2022-11-20T09:16:35;99649.00;;;2.40
22322;BMP180;11328;53.928;18.522;2022-11-20T09:19:02;99655.00;;;2.50
22322;BMP180;11328;53.928;18.522;2022-11-20T09:21:49;99647.00;;;2.40
22322;BMP180;11328;53.928;18.522;2022-11-20T09:24:21;99630.00;;;2.50
22322;BMP180;11328;53.928;18.522;2022-11-20T09:26:48;99637.00;;;2.60
22322;BMP180;11328;53.928;18.522;2022-11-20T09:29:15;99641.00;;;2.80
22322;BMP180;11328;53.928;18.522;2022-11-20T09:31:42;99629.00;;;2.80
22322;BMP180;11328;53.928;18.522;2022-11-20T09:34:09;99638.00;;;2.80
22322;BMP180;11328;53.928;18.522;2022-11-20T09:36:36;99637.00;;;2.80
22322;BMP180;11328;53.928;18.522;2022-11-20T09:39:03;99635.00;;;2.90
22322;BMP180;11328;53.928;18.522;2022-11-20T09:41:59;99618.00;;;2.90
22322;BMP180;11328;53.928;18.522;2022-11-20T09:55:51;99628.00;;;2.70
22322;BMP180;11328;53.928;18.522;2022-11-20T09:58:32;99616.00;;;2.80
22322;BMP180;11328;53.928;18.522;2022-11-20T10:01:26;99614.00;;;2.90
22322;BMP180;11328;53.928;18.522;2022-11-20T10:04:02;99613.00;;;2.90
22322;BMP180;11328;53.928;18.522;2022-11-20T10:07:27;99610.00;;;2.90
22322;BMP180;11328;53.928;18.522;2022-11-20T10:09:59;99584.00;;;2.90
22322;BMP180;11328;53.928;18.522;2022-11-20T10:29:41;99605.00;;;2.90
22322;BMP180;11328;53.928;18.522;2022-11-20T10:32:19;99608.00;;;2.90
22322;BMP180;11328;53.928;18.522;2022-11-20T10:35:42;99601.00;;;2.90
22322;BMP180;11328;53.928;18.522;2022-11-20T10:38:21;99592.00;;;2.90
22322;BMP180;11328;53.928;18.522;2022-11-20T10:40:59;99595.00;;;3.00
22322;BMP180;11328;53.928;18.522;2022-11-20T10:43:49;99595.00;;;3.10
22322;BMP180;11328;53.928;18.522;2022-11-20T10:46:21;99594.00;;;3.20
22322;BMP180;11328;53.928;18.522;2022-11-20T10:48:49;99601.00;;;3.20
22322;BMP180;11328;53.928;18.522;2022-11-20T11:00:10;99582.00;;;3.00
22322;BMP180;11328;53.928;18.522;2022-11-20T11:02:59;99582.00;;;3.10
22322;BMP180;11328;53.928;18.522;2022-11-20T11:05:42;99532.00;;;3.10
22322;BMP180;11328;53.928;18.522;2022-11-20T11:08:17;99576.00;;;3.00
22322;BMP180;11328;53.928;18.522;2022-11-20T11:10:55;99577.00;;;2.90
22322;BMP180;11328;53.928;18.522;2022-11-20T11:13:27;99574.00;;;2.90
22322;BMP180;11328;53.928;18.522;2022-11-20T11:15:56;99575.00;;;2.90
22322;BMP180;11328;53.928;18.522;2022-11-20T11:18:28;99579.00;;;3.00
22322;BMP180;11328;53.928;18.522;2022-11-20T11:20:58;99576.00;;;3.00
22322;BMP180;11328;53.928;18.522;2022-11-20T11:23:37;99573.00;;;3.00
22322;BMP180;11328;53.928;18.522;2022-11-20T11:26:23;99576.00;;;3.00
22322;BMP180;11328;53.928;18.522;2022-11-20T11:29:02;99577.00;;;3.00
22322;BMP180;11328;53.928;18.522;2022-11-20T11:31:33;99580.00;;;3.00
22322;BMP180;11328;53.928;18.522;2022-11-20T11:34:19;99572.00;;;3.10
22322;BMP180;11328;53.928;18.522;2022-11-20T11:36:58;99560.00;;;3.00
22322;BMP180;11328;53.928;18.522;2022-11-20T11:39:28;99576.00;;;3.00
22322;BMP180;11328;53.928;18.522;2022-11-20T11:41:58;99563.00;;;2.90
22322;BMP180;11328;53.928;18.522;2022-11-20T11:44:33;99566.00;;;2.90
22322;BMP180;11328;53.928;18.522;2022-11-20T11:47:28;99557.00;;;2.90
22322;BMP180;11328;53.928;18.522;2022-11-20T11:53:14;99561.00;;;3.00
22322;BMP180;11328;53.928;18.522;2022-11-20T11:55:52;99545.00;;;3.10
22322;BMP180;11328;53.928;18.522;2022-11-20T11:58:47;99544.00;;;3.00
22322;BMP180;11328;53.928;18.522;2022-11-20T12:01:50;99547.00;;;3.00
22322;BMP180;11328;53.928;18.522;2022-11-20T12:04:46;99547.00;;;3.10
22322;BMP180;11328;53.928;18.522;2022-11-20T12:07:41;99546.00;;;3.10
22322;BMP180;11328;53.928;18.522;2022-11-20T12:10:21;99543.00;;;3.10
22322;BMP180;11328;53.928;18.522;2022-11-20T12:13:00;99535.00;;;3.10
22322;BMP180;11328;53.928;18.522;2022-11-20T12:15:32;99530.00;;;3.10
22322;BMP180;11328;53.928;18.522;2022-11-20T12:18:00;99531.00;;;3.10
22322;BMP180;11328;53.928;18.522;2022-11-20T12:20:43;99533.00;;;3.10
22322;BMP180;11328;53.928;18.522;2022-11-20T12:26:27;99526.00;;;3.10
22322;BMP180;11328;53.928;18.522;2022-11-20T13:00:22;99499.00;;;3.20
22322;BMP180;11328;53.928;18.522;2022-11-20T13:08:15;99492.00;;;3.00
22322;BMP180;11328;53.928;18.522;2022-11-20T13:11:09;99482.00;;;2.80
22322;BMP180;11328;53.928;18.522;2022-11-20T13:14:16;99487.00;;;2.70
22322;BMP180;11328;53.928;18.522;2022-11-20T13:17:14;99481.00;;;2.70
22322;BMP180;11328;53.928;18.522;2022-11-20T13:19:54;99481.00;;;2.60
22322;BMP180;11328;53.928;18.522;2022-11-20T13:22:43;99466.00;;;2.50
22322;BMP180;11328;53.928;18.522;2022-11-20T13:25:43;99469.00;;;2.50
22322;BMP180;11328;53.928;18.522;2022-11-20T13:30:49;99470.00;;;2.30
22322;BMP180;11328;53.928;18.522;2022-11-20T13:33:35;99437.00;;;2.20
22322;BMP180;11328;53.928;18.522;2022-11-20T13:36:23;99460.00;;;2.20
22322;BMP180;11328;53.928;18.522;2022-11-20T13:38:55;99466.00;;;2.20
22322;BMP180;11328;53.928;18.522;2022-11-20T13:41:35;99462.00;;;2.10
22322;BMP180;11328;53.928;18.522;2022-11-20T13:44:25;99450.00;;;2.10
22322;BMP180;11328;53.928;18.522;2022-11-20T13:46:53;99452.00;;;2.10
22322;BMP180;11328;53.928;18.522;2022-11-20T13:49:28;99452.00;;;2.00
22322;BMP180;11328;53.928;18.522;2022-11-20T13:55:23;99442.00;;;1.90
22322;BMP180;11328;53.928;18.522;2022-11-20T14:01:16;99416.00;;;1.90
22322;BMP180;11328;53.928;18.522;2022-11-20T14:03:44;99439.00;;;1.80
22322;BMP180;11328;53.928;18.522;2022-11-20T14:06:40;99441.00;;;1.80
22322;BMP180;11328;53.928;18.522;2022-11-20T14:09:24;99435.00;;;1.80
22322;BMP180;11328;53.928;18.522;2022-11-20T14:11:52;99419.00;;;1.80
22322;BMP180;11328;53.928;18.522;2022-11-20T14:14:22;99435.00;;;1.70
22322;BMP180;11328;53.928;18.522;2022-11-20T14:16:51;99426.00;;;1.70
22322;BMP180;11328;53.928;18.522;2022-11-20T14:19:28;99417.00;;;1.60
22322;BMP180;11328;53.928;18.522;2022-11-20T14:22:22;99417.00;;;1.60
22322;BMP180;11328;53.928;18.522;2022-11-20T14:27:28;99412.00;;;1.60
22322;BMP180;11328;53.928;18.522;2022-11-20T14:29:56;99415.00;;;1.50
22322;BMP180;11328;53.928;18.522;2022-11-20T14:32:28;99416.00;;;1.50
22322;BMP180;11328;53.928;18.522;2022-11-20T14:35:03;99404.00;;;1.50
22322;BMP180;11328;53.928;18.522;2022-11-20T14:37:38;99395.00;;;1.40
22322;BMP180;11328;53.928;18.522;2022-11-20T14:40:33;99395.00;;;1.40
22322;BMP180;11328;53.928;18.522;2022-11-20T14:43:26;99403.00;;;1.40
22322;BMP180;11328;53.928;18.522;2022-11-20T14:46:08;99286.00;;;1.40
22322;BMP180;11328;53.928;18.522;2022-11-20T14:48:49;99397.00;;;1.40
22322;BMP180;11328;53.928;18.522;2022-11-20T14:54:14;99393.00;;;1.30
22322;BMP180;11328;53.928;18.522;2022-11-20T14:56:57;99395.00;;;1.40
22322;BMP180;11328;53.928;18.522;2022-11-20T14:59:26;99390.00;;;1.40
22322;BMP180;11328;53.928;18.522;2022-11-20T15:02:02;99388.00;;;1.30
22322;BMP180;11328;53.928;18.522;2022-11-20T15:04:30;99364.00;;;1.30
22322;BMP180;11328;53.928;18.522;2022-11-20T15:06:59;99393.00;;;1.40
22322;BMP180;11328;53.928;18.522;2022-11-20T15:09:26;99381.00;;;1.30
22322;BMP180;11328;53.928;18.522;2022-11-20T15:12:00;99378.00;;;1.40
22322;BMP180;11328;53.928;18.522;2022-11-20T15:14:30;99378.00;;;1.40
22322;BMP180;11328;53.928;18.522;2022-11-20T15:16:59;99382.00;;;1.40
22322;BMP180;11328;53.928;18.522;2022-11-20T15:19:29;99374.00;;;1.40
22322;BMP180;11328;53.928;18.522;2022-11-20T15:21:57;99369.00;;;1.50
22322;BMP180;11328;53.928;18.522;2022-11-20T15:24:24;99369.00;;;1.50
22322;BMP180;11328;53.928;18.522;2022-11-20T15:26:52;99369.00;;;1.40
22322;BMP180;11328;53.928;18.522;2022-11-20T15:29:20;99367.00;;;1.40
22322;BMP180;11328;53.928;18.522;2022-11-20T15:31:48;99361.00;;;1.40
22322;BMP180;11328;53.928;18.522;2022-11-20T15:34:18;99356.00;;;1.50
22322;BMP180;11328;53.928;18.522;2022-11-20T15:36:45;99355.00;;;1.50
22322;BMP180;11328;53.928;18.522;2022-11-20T15:39:12;99351.00;;;1.60
22322;BMP180;11328;53.928;18.522;2022-11-20T15:41:41;99347.00;;;1.60
22322;BMP180;11328;53.928;18.522;2022-11-20T15:44:09;99346.00;;;1.60
22322;BMP180;11328;53.928;18.522;2022-11-20T15:46:40;99343.00;;;1.60
22322;BMP180;11328;53.928;18.522;2022-11-20T15:49:15;99343.00;;;1.70
22322;BMP180;11328;53.928;18.522;2022-11-20T15:51:48;99341.00;;;1.70
22322;BMP180;11328;53.928;18.522;2022-11-20T15:54:21;99338.00;;;1.70
22322;BMP180;11328;53.928;18.522;2022-11-20T15:56:50;99330.00;;;1.70
22322;BMP180;11328;53.928;18.522;2022-11-20T15:59:20;99327.00;;;1.70
22322;BMP180;11328;53.928;18.522;2022-11-20T16:01:47;99322.00;;;1.70
22322;BMP180;11328;53.928;18.522;2022-11-20T16:04:16;99334.00;;;1.80
22322;BMP180;11328;53.928;18.522;2022-11-20T16:06:43;99333.00;;;1.80
22322;BMP180;11328;53.928;18.522;2022-11-20T16:09:10;99325.00;;;1.80
22322;BMP180;11328;53.928;18.522;2022-11-20T16:11:38;99330.00;;;1.80
22322;BMP180;11328;53.928;18.522;2022-11-20T16:14:05;99328.00;;;1.80
22322;BMP180;11328;53.928;18.522;2022-11-20T16:16:52;99292.00;;;1.80
22322;BMP180;11328;53.928;18.522;2022-11-20T16:19:19;99331.00;;;1.80
22322;BMP180;11328;53.928;18.522;2022-11-20T16:21:46;99324.00;;;1.80
22322;BMP180;11328;53.928;18.522;2022-11-20T16:24:15;99321.00;;;1.80
22322;BMP180;11328;53.928;18.522;2022-11-20T16:26:42;99317.00;;;1.80
22322;BMP180;11328;53.928;18.522;2022-11-20T16:29:11;99308.00;;;1.90
22322;BMP180;11328;53.928;18.522;2022-11-20T16:31:38;99317.00;;;2.00
22322;BMP180;11328;53.928;18.522;2022-11-20T16:34:07;99326.00;;;2.00
22322;BMP180;11328;53.928;18.522;2022-11-20T16:36:42;99318.00;;;2.00
22322;BMP180;11328;53.928;18.522;2022-11-20T16:39:12;99314.00;;;2.00
22322;BMP180;11328;53.928;18.522;2022-11-20T16:41:41;99320.00;;;2.00
22322;BMP180;11328;53.928;18.522;2022-11-20T16:44:10;99294.00;;;2.00
22322;BMP180;11328;53.928;18.522;2022-11-20T16:46:37;99314.00;;;2.10
22322;BMP180;11328;53.928;18.522;2022-11-20T16:49:12;99314.00;;;2.10
22322;BMP180;11328;53.928;18.522;2022-11-20T16:51:40;99308.00;;;2.00
22322;BMP180;11328;53.928;18.522;2022-11-20T16:54:09;99281.00;;;2.10